sensor_id;sensor_type;location;lat;lon;timestamp;P1;durP1;ratioP1;P2;durP2;ratioP2
18360;SDS011;9308;48.550;9.108;2022-12-05T00:00:11;23.23;;;17.97;;
18360;SDS011;9308;48.550;9.108;2022-12-05T00:02:37;24.07;;;17.50;;
18360;SDS011;9308;48.550;9.108;2022-12-05T00:05:04;25.33;;;17.83;;
18360;SDS011;9308;48.550;9.108;2022-12-05T00:07:30;23.67;;;16.87;;
18360;SDS011;9308;48.550;9.108;2022-12-05T00:09:57;22.60;;;17.50;;
18360;SDS011;9308;48.550;9.108;2022-12-05T00:12:24;20.77;;;16.00;;
18360;SDS011;9308;48.550;9.108;2022-12-05T00:14:51;22.97;;;17.00;;
18360;SDS011;9308;48.550;9.108;2022-12-05T00:17:18;24.13;;;18.53;;
18360;SDS011;9308;48.550;9.108;2022-12-05T00:19:46;23.87;;;16.57;;
18360;SDS011;9308;48.550;9.108;2022-12-05T00:22:13;22.53;;;16.77;;
18360;SDS011;9308;48.550;9.108;2022-12-05T00:24:41;24.17;;;17.07;;
18360;SDS011;9308;48.550;9.108;2022-12-05T00:27:07;24.00;;;17.57;;
18360;SDS011;9308;48.550;9.108;2022-12-05T00:29:35;25.77;;;17.50;;
18360;SDS011;9308;48.550;9.108;2022-12-05T00:32:03;23.03;;;16.80;;
18360;SDS011;9308;48.550;9.108;2022-12-05T00:34:31;23.00;;;17.07;;
18360;SDS011;9308;48.550;9.108;2022-12-05T00:36:59;26.50;;;16.93;;
18360;SDS011;9308;48.550;9.108;2022-12-05T00:39:25;20.53;;;15.83;;
18360;SDS011;9308;48.550;9.108;2022-12-05T00:41:53;24.17;;;17.40;;
18360;SDS011;9308;48.550;9.108;2022-12-05T00:44:19;23.20;;;17.77;;
18360;SDS011;9308;48.550;9.108;2022-12-05T00:46:47;24.27;;;17.27;;
18360;SDS011;9308;48.550;9.108;2022-12-05T00:49:13;21.73;;;17.90;;
18360;SDS011;9308;48.550;9.108;2022-12-05T00:51:41;23.43;;;18.00;;
18360;SDS011;9308;48.550;9.108;2022-12-05T00:54:09;23.40;;;18.00;;
18360;SDS011;9308;48.550;9.108;2022-12-05T00:56:39;28.50;;;18.53;;
18360;SDS011;9308;48.550;9.108;2022-12-05T00:59:06;24.13;;;16.83;;
18360;SDS011;9308;48.550;9.108;2022-12-05T01:01:37;27.00;;;17.60;;
18360;SDS011;9308;48.550;9.108;2022-12-05T01:04:06;26.73;;;19.00;;
18360;SDS011;9308;48.550;9.108;2022-12-05T01:06:36;25.63;;;17.37;;
18360;SDS011;9308;48.550;9.108;2022-12-05T01:09:05;24.43;;;17.37;;
18360;SDS011;9308;48.550;9.108;2022-12-05T01:11:32;28.43;;;17.90;;
18360;SDS011;9308;48.550;9.108;2022-12-05T01:13:59;29.23;;;19.07;;
18360;SDS011;9308;48.550;9.108;2022-12-05T01:16:28;26.43;;;19.13;;
18360;SDS011;9308;48.550;9.108;2022-12-05T01:18:59;25.73;;;18.27;;
18360;SDS011;9308;48.550;9.108;2022-12-05T01:21:32;26.47;;;17.87;;
18360;SDS011;9308;48.550;9.108;2022-12-05T01:24:00;24.10;;;17.60;;
18360;SDS011;9308;48.550;9.108;2022-12-05T01:26:27;25.83;;;18.47;;
18360;SDS011;9308;48.550;9.108;2022-12-05T01:28:54;28.97;;;19.40;;
18360;SDS011;9308;48.550;9.108;2022-12-05T01:31:25;27.23;;;18.97;;
18360;SDS011;9308;48.550;9.108;2022-12-05T01:33:56;30.37;;;18.43;;
18360;SDS011;9308;48.550;9.108;2022-12-05T01:36:25;26.27;;;18.90;;
18360;SDS011;9308;48.550;9.108;2022-12-05T01:38:54;26.93;;;18.80;;
18360;SDS011;9308;48.550;9.108;2022-12-05T01:41:28;28.17;;;19.00;;
18360;SDS011;9308;48.550;9.108;2022-12-05T01:44:01;30.60;;;19.27;;
18360;SDS011;9308;48.550;9.108;2022-12-05T01:46:36;25.13;;;17.90;;
18360;SDS011;9308;48.550;9.108;2022-12-05T01:49:30;26.37;;;18.93;;
18360;SDS011;9308;48.550;9.108;2022-12-05T01:52:03;29.10;;;18.03;;
18360;SDS011;9308;48.550;9.108;2022-12-05T01:54:34;26.40;;;19.50;;
18360;SDS011;9308;48.550;9.108;2022-12-05T01:57:05;30.80;;;19.20;;
18360;SDS011;9308;48.550;9.108;2022-12-05T01:59:37;29.53;;;18.53;;
18360;SDS011;9308;48.550;9.108;2022-12-05T02:02:08;28.80;;;19.07;;
18360;SDS011;9308;48.550;9.108;2022-12-05T02:04:41;27.43;;;19.10;;
18360;SDS011;9308;48.550;9.108;2022-12-05T02:07:13;28.00;;;18.43;;
18360;SDS011;9308;48.550;9.108;2022-12-05T02:09:42;28.10;;;18.87;;
18360;SDS011;9308;48.550;9.108;2022-12-05T02:12:09;32.07;;;18.93;;
18360;SDS011;9308;48.550;9.108;2022-12-05T02:14:39;31.70;;;19.50;;
18360;SDS011;9308;48.550;9.108;2022-12-05T02:17:23;28.87;;;19.70;;
18360;SDS011;9308;48.550;9.108;2022-12-05T02:30:24;25.80;;;18.20;;
18360;SDS011;9308;48.550;9.108;2022-12-05T02:33:06;24.17;;;18.13;;
18360;SDS011;9308;48.550;9.108;2022-12-05T02:35:55;25.77;;;18.67;;
18360;SDS011;9308;48.550;9.108;2022-12-05T02:38:35;28.83;;;18.23;;
18360;SDS011;9308;48.550;9.108;2022-12-05T02:41:33;30.73;;;18.20;;
18360;SDS011;9308;48.550;9.108;2022-12-05T02:44:07;23.73;;;17.17;;
18360;SDS011;9308;48.550;9.108;2022-12-05T02:46:43;25.90;;;18.77;;
18360;SDS011;9308;48.550;9.108;2022-12-05T02:49:17;26.20;;;18.67;;
18360;SDS011;9308;48.550;9.108;2022-12-05T02:51:48;24.47;;;17.43;;
18360;SDS011;9308;48.550;9.108;2022-12-05T02:54:26;21.67;;;16.67;;
18360;SDS011;9308;48.550;9.108;2022-12-05T02:56:57;23.07;;;17.30;;
18360;SDS011;9308;48.550;9.108;2022-12-05T02:59:26;24.43;;;17.60;;
18360;SDS011;9308;48.550;9.108;2022-12-05T03:01:56;24.23;;;17.87;;
18360;SDS011;9308;48.550;9.108;2022-12-05T03:04:23;26.73;;;17.83;;
18360;SDS011;9308;48.550;9.108;2022-12-05T03:07:06;23.70;;;17.50;;
18360;SDS011;9308;48.550;9.108;2022-12-05T03:09:36;21.93;;;16.17;;
18360;SDS011;9308;48.550;9.108;2022-12-05T03:12:33;30.40;;;17.27;;
18360;SDS011;9308;48.550;9.108;2022-12-05T03:15:11;23.40;;;16.10;;
18360;SDS011;9308;48.550;9.108;2022-12-05T03:17:43;25.70;;;17.03;;
18360;SDS011;9308;48.550;9.108;2022-12-05T03:20:18;24.10;;;18.00;;
18360;SDS011;9308;48.550;9.108;2022-12-05T03:22:58;24.00;;;16.30;;
18360;SDS011;9308;48.550;9.108;2022-12-05T03:25:34;25.67;;;16.47;;
18360;SDS011;9308;48.550;9.108;2022-12-05T03:28:31;22.47;;;15.23;;
18360;SDS011;9308;48.550;9.108;2022-12-05T03:31:04;24.77;;;16.20;;
18360;SDS011;9308;48.550;9.108;2022-12-05T03:33:39;21.83;;;16.10;;
18360;SDS011;9308;48.550;9.108;2022-12-05T03:36:21;22.93;;;15.03;;
18360;SDS011;9308;48.550;9.108;2022-12-05T03:38:57;18.63;;;14.67;;
18360;SDS011;9308;48.550;9.108;2022-12-05T03:41:40;25.20;;;16.23;;
18360;SDS011;9308;48.550;9.108;2022-12-05T03:44:18;21.27;;;15.13;;
18360;SDS011;9308;48.550;9.108;2022-12-05T03:49:57;21.70;;;15.80;;
18360;SDS011;9308;48.550;9.108;2022-12-05T03:52:34;22.40;;;16.03;;
18360;SDS011;9308;48.550;9.108;2022-12-05T03:55:07;20.50;;;15.00;;
18360;SDS011;9308;48.550;9.108;2022-12-05T03:57:41;22.67;;;16.23;;
18360;SDS011;9308;48.550;9.108;2022-12-05T04:00:18;24.20;;;17.10;;
18360;SDS011;9308;48.550;9.108;2022-12-05T04:03:10;20.27;;;15.47;;
18360;SDS011;9308;48.550;9.108;2022-12-05T04:05:44;22.67;;;15.77;;
18360;SDS011;9308;48.550;9.108;2022-12-05T04:10:57;20.07;;;15.87;;
18360;SDS011;9308;48.550;9.108;2022-12-05T04:13:32;19.53;;;15.17;;
18360;SDS011;9308;48.550;9.108;2022-12-05T04:16:09;22.10;;;17.30;;
18360;SDS011;9308;48.550;9.108;2022-12-05T04:19:02;23.33;;;17.67;;
18360;SDS011;9308;48.550;9.108;2022-12-05T04:21:37;26.90;;;20.20;;
18360;SDS011;9308;48.550;9.108;2022-12-05T04:24:09;27.00;;;19.37;;
18360;SDS011;9308;48.550;9.108;2022-12-05T04:27:19;25.13;;;18.20;;
18360;SDS011;9308;48.550;9.108;2022-12-05T04:30:07;26.10;;;19.23;;
18360;SDS011;9308;48.550;9.108;2022-12-05T04:35:14;25.80;;;19.00;;
18360;SDS011;9308;48.550;9.108;2022-12-05T04:37:47;26.60;;;20.30;;
18360;SDS011;9308;48.550;9.108;2022-12-05T04:40:19;26.83;;;20.00;;
18360;SDS011;9308;48.550;9.108;2022-12-05T04:42:55;27.20;;;19.43;;
18360;SDS011;9308;48.550;9.108;2022-12-05T04:45:27;27.57;;;19.77;;
18360;SDS011;9308;48.550;9.108;2022-12-05T04:47:58;23.83;;;17.10;;
18360;SDS011;9308;48.550;9.108;2022-12-05T04:50:30;22.87;;;17.03;;
18360;SDS011;9308;48.550;9.108;2022-12-05T04:53:03;21.07;;;15.53;;
18360;SDS011;9308;48.550;9.108;2022-12-05T04:55:33;23.43;;;16.57;;
18360;SDS011;9308;48.550;9.108;2022-12-05T04:58:14;24.33;;;17.10;;
18360;SDS011;9308;48.550;9.108;2022-12-05T05:00:57;18.83;;;16.10;;
18360;SDS011;9308;48.550;9.108;2022-12-05T05:03:44;23.00;;;17.10;;
18360;SDS011;9308;48.550;9.108;2022-12-05T05:06:16;26.27;;;16.40;;
18360;SDS011;9308;48.550;9.108;2022-12-05T05:08:51;24.27;;;17.20;;
18360;SDS011;9308;48.550;9.108;2022-12-05T05:11:23;23.07;;;17.00;;
18360;SDS011;9308;48.550;9.108;2022-12-05T05:13:53;21.60;;;17.30;;
18360;SDS011;9308;48.550;9.108;2022-12-05T05:16:30;21.93;;;16.03;;
18360;SDS011;9308;48.550;9.108;2022-12-05T05:19:07;22.27;;;15.40;;
18360;SDS011;9308;48.550;9.108;2022-12-05T05:21:37;19.77;;;14.87;;
18360;SDS011;9308;48.550;9.108;2022-12-05T05:24:08;19.07;;;15.93;;
18360;SDS011;9308;48.550;9.108;2022-12-05T05:26:40;22.13;;;16.10;;
18360;SDS011;9308;48.550;9.108;2022-12-05T05:29:08;23.53;;;15.17;;
18360;SDS011;9308;48.550;9.108;2022-12-05T05:31:40;30.57;;;19.00;;
18360;SDS011;9308;48.550;9.108;2022-12-05T05:34:10;28.33;;;18.13;;
18360;SDS011;9308;48.550;9.108;2022-12-05T05:36:39;23.63;;;17.17;;
18360;SDS011;9308;48.550;9.108;2022-12-05T05:39:09;25.17;;;16.50;;
18360;SDS011;9308;48.550;9.108;2022-12-05T05:41:38;22.03;;;16.83;;
18360;SDS011;9308;48.550;9.108;2022-12-05T05:44:04;22.10;;;16.70;;
18360;SDS011;9308;48.550;9.108;2022-12-05T05:46:33;26.20;;;16.20;;
18360;SDS011;9308;48.550;9.108;2022-12-05T05:49:03;21.60;;;16.90;;
18360;SDS011;9308;48.550;9.108;2022-12-05T05:51:33;24.17;;;16.33;;
18360;SDS011;9308;48.550;9.108;2022-12-05T05:53:59;23.47;;;16.67;;
18360;SDS011;9308;48.550;9.108;2022-12-05T05:56:27;21.60;;;15.43;;
18360;SDS011;9308;48.550;9.108;2022-12-05T05:58:54;22.27;;;17.13;;
18360;SDS011;9308;48.550;9.108;2022-12-05T06:01:25;24.00;;;17.83;;
18360;SDS011;9308;48.550;9.108;2022-12-05T06:03:52;23.40;;;16.97;;
18360;SDS011;9308;48.550;9.108;2022-12-05T06:06:18;25.20;;;17.80;;
18360;SDS011;9308;48.550;9.108;2022-12-05T06:08:45;25.53;;;18.33;;
18360;SDS011;9308;48.550;9.108;2022-12-05T06:11:12;27.17;;;20.30;;
18360;SDS011;9308;48.550;9.108;2022-12-05T06:13:39;27.60;;;20.50;;
18360;SDS011;9308;48.550;9.108;2022-12-05T06:16:06;30.03;;;20.93;;
18360;SDS011;9308;48.550;9.108;2022-12-05T06:18:33;27.00;;;19.67;;
18360;SDS011;9308;48.550;9.108;2022-12-05T06:20:58;26.00;;;19.10;;
18360;SDS011;9308;48.550;9.108;2022-12-05T06:23:24;26.30;;;18.77;;
18360;SDS011;9308;48.550;9.108;2022-12-05T06:25:52;23.47;;;17.60;;
18360;SDS011;9308;48.550;9.108;2022-12-05T06:28:19;24.20;;;17.90;;
18360;SDS011;9308;48.550;9.108;2022-12-05T06:30:46;22.60;;;17.80;;
18360;SDS011;9308;48.550;9.108;2022-12-05T06:33:11;22.33;;;16.97;;
18360;SDS011;9308;48.550;9.108;2022-12-05T06:35:37;23.03;;;16.93;;
18360;SDS011;9308;48.550;9.108;2022-12-05T06:38:03;20.87;;;17.27;;
18360;SDS011;9308;48.550;9.108;2022-12-05T06:40:30;23.20;;;17.60;;
18360;SDS011;9308;48.550;9.108;2022-12-05T06:42:56;24.70;;;17.90;;
18360;SDS011;9308;48.550;9.108;2022-12-05T06:45:21;24.53;;;18.37;;
18360;SDS011;9308;48.550;9.108;2022-12-05T06:47:47;22.93;;;18.30;;
18360;SDS011;9308;48.550;9.108;2022-12-05T06:50:12;22.13;;;17.50;;
18360;SDS011;9308;48.550;9.108;2022-12-05T06:52:37;25.43;;;17.97;;
18360;SDS011;9308;48.550;9.108;2022-12-05T06:55:03;24.70;;;17.30;;
18360;SDS011;9308;48.550;9.108;2022-12-05T06:57:29;21.40;;;17.07;;
18360;SDS011;9308;48.550;9.108;2022-12-05T06:59:55;24.90;;;19.80;;
18360;SDS011;9308;48.550;9.108;2022-12-05T07:02:41;26.00;;;20.17;;
18360;SDS011;9308;48.550;9.108;2022-12-05T07:05:07;26.53;;;19.70;;
18360;SDS011;9308;48.550;9.108;2022-12-05T07:07:33;22.40;;;19.43;;
18360;SDS011;9308;48.550;9.108;2022-12-05T07:09:59;24.33;;;18.30;;
18360;SDS011;9308;48.550;9.108;2022-12-05T07:12:24;23.17;;;17.60;;
18360;SDS011;9308;48.550;9.108;2022-12-05T07:14:50;25.67;;;17.73;;
18360;SDS011;9308;48.550;9.108;2022-12-05T07:17:19;19.90;;;16.27;;
18360;SDS011;9308;48.550;9.108;2022-12-05T07:19:48;23.20;;;17.17;;
18360;SDS011;9308;48.550;9.108;2022-12-05T07:22:16;22.33;;;17.20;;
18360;SDS011;9308;48.550;9.108;2022-12-05T07:24:42;27.27;;;18.60;;
18360;SDS011;9308;48.550;9.108;2022-12-05T07:27:09;24.10;;;16.87;;
18360;SDS011;9308;48.550;9.108;2022-12-05T07:29:34;26.20;;;16.90;;
18360;SDS011;9308;48.550;9.108;2022-12-05T07:32:00;22.83;;;16.90;;
18360;SDS011;9308;48.550;9.108;2022-12-05T07:34:26;22.40;;;18.87;;
18360;SDS011;9308;48.550;9.108;2022-12-05T07:36:51;21.30;;;16.77;;
18360;SDS011;9308;48.550;9.108;2022-12-05T07:39:17;21.60;;;16.60;;
18360;SDS011;9308;48.550;9.108;2022-12-05T07:41:42;21.73;;;18.03;;
18360;SDS011;9308;48.550;9.108;2022-12-05T07:44:08;21.50;;;17.03;;
18360;SDS011;9308;48.550;9.108;2022-12-05T07:46:36;26.77;;;18.27;;
18360;SDS011;9308;48.550;9.108;2022-12-05T07:49:01;22.67;;;16.60;;
18360;SDS011;9308;48.550;9.108;2022-12-05T07:51:27;20.57;;;16.47;;
18360;SDS011;9308;48.550;9.108;2022-12-05T07:53:52;22.13;;;16.57;;
18360;SDS011;9308;48.550;9.108;2022-12-05T07:56:18;25.13;;;17.57;;
18360;SDS011;9308;48.550;9.108;2022-12-05T07:58:44;22.67;;;17.80;;
18360;SDS011;9308;48.550;9.108;2022-12-05T08:01:12;23.27;;;17.73;;
18360;SDS011;9308;48.550;9.108;2022-12-05T08:03:41;24.47;;;18.80;;
18360;SDS011;9308;48.550;9.108;2022-12-05T08:06:08;21.87;;;16.60;;
18360;SDS011;9308;48.550;9.108;2022-12-05T08:08:35;19.53;;;15.93;;
18360;SDS011;9308;48.550;9.108;2022-12-05T08:11:05;20.03;;;16.20;;
18360;SDS011;9308;48.550;9.108;2022-12-05T08:13:33;21.77;;;15.90;;
18360;SDS011;9308;48.550;9.108;2022-12-05T08:15:59;21.37;;;15.73;;
18360;SDS011;9308;48.550;9.108;2022-12-05T08:18:26;20.90;;;15.37;;
18360;SDS011;9308;48.550;9.108;2022-12-05T08:20:52;20.37;;;15.20;;
18360;SDS011;9308;48.550;9.108;2022-12-05T08:23:17;20.27;;;15.60;;
18360;SDS011;9308;48.550;9.108;2022-12-05T08:25:43;18.90;;;15.73;;
18360;SDS011;9308;48.550;9.108;2022-12-05T08:28:09;18.60;;;15.50;;
18360;SDS011;9308;48.550;9.108;2022-12-05T08:30:34;18.13;;;16.20;;
18360;SDS011;9308;48.550;9.108;2022-12-05T08:32:59;17.53;;;15.73;;
18360;SDS011;9308;48.550;9.108;2022-12-05T08:35:25;18.17;;;15.00;;
18360;SDS011;9308;48.550;9.108;2022-12-05T08:37:50;18.03;;;14.60;;
18360;SDS011;9308;48.550;9.108;2022-12-05T08:40:17;14.80;;;12.90;;
18360;SDS011;9308;48.550;9.108;2022-12-05T08:42:42;15.57;;;13.83;;
18360;SDS011;9308;48.550;9.108;2022-12-05T08:45:08;16.03;;;13.30;;
18360;SDS011;9308;48.550;9.108;2022-12-05T08:47:34;15.07;;;12.30;;
18360;SDS011;9308;48.550;9.108;2022-12-05T08:50:00;16.33;;;12.40;;
18360;SDS011;9308;48.550;9.108;2022-12-05T08:52:25;13.97;;;12.37;;
18360;SDS011;9308;48.550;9.108;2022-12-05T08:54:51;15.63;;;13.50;;
18360;SDS011;9308;48.550;9.108;2022-12-05T08:57:16;14.33;;;12.63;;
18360;SDS011;9308;48.550;9.108;2022-12-05T08:59:42;14.87;;;11.63;;
18360;SDS011;9308;48.550;9.108;2022-12-05T09:02:08;14.40;;;12.17;;
18360;SDS011;9308;48.550;9.108;2022-12-05T09:04:34;14.33;;;12.77;;
18360;SDS011;9308;48.550;9.108;2022-12-05T09:07:00;14.83;;;12.43;;
18360;SDS011;9308;48.550;9.108;2022-12-05T09:09:26;13.90;;;12.60;;
18360;SDS011;9308;48.550;9.108;2022-12-05T09:11:52;12.33;;;10.20;;
18360;SDS011;9308;48.550;9.108;2022-12-05T09:14:17;13.90;;;12.40;;
18360;SDS011;9308;48.550;9.108;2022-12-05T09:16:43;12.57;;;11.20;;
18360;SDS011;9308;48.550;9.108;2022-12-05T09:19:11;12.70;;;11.40;;
18360;SDS011;9308;48.550;9.108;2022-12-05T09:21:39;12.50;;;10.93;;
18360;SDS011;9308;48.550;9.108;2022-12-05T09:24:05;11.23;;;10.07;;
18360;SDS011;9308;48.550;9.108;2022-12-05T09:26:31;11.20;;;9.53;;
18360;SDS011;9308;48.550;9.108;2022-12-05T09:28:56;9.50;;;8.50;;
18360;SDS011;9308;48.550;9.108;2022-12-05T09:31:23;11.20;;;9.97;;
18360;SDS011;9308;48.550;9.108;2022-12-05T09:33:51;13.53;;;10.70;;
18360;SDS011;9308;48.550;9.108;2022-12-05T09:38:45;12.37;;;11.00;;
18360;SDS011;9308;48.550;9.108;2022-12-05T09:41:55;11.67;;;10.50;;
18360;SDS011;9308;48.550;9.108;2022-12-05T09:49:56;14.50;;;11.90;;
18360;SDS011;9308;48.550;9.108;2022-12-05T09:52:30;10.90;;;9.90;;
18360;SDS011;9308;48.550;9.108;2022-12-05T09:54:59;10.33;;;9.23;;
18360;SDS011;9308;48.550;9.108;2022-12-05T09:57:31;10.53;;;8.60;;
18360;SDS011;9308;48.550;9.108;2022-12-05T10:00:00;10.53;;;8.20;;
18360;SDS011;9308;48.550;9.108;2022-12-05T10:02:31;8.10;;;7.40;;
18360;SDS011;9308;48.550;9.108;2022-12-05T10:05:10;7.93;;;7.30;;
18360;SDS011;9308;48.550;9.108;2022-12-05T10:08:06;8.53;;;7.73;;
18360;SDS011;9308;48.550;9.108;2022-12-05T10:11:08;9.17;;;8.30;;
18360;SDS011;9308;48.550;9.108;2022-12-05T10:16:40;8.67;;;7.97;;
18360;SDS011;9308;48.550;9.108;2022-12-05T10:19:30;9.80;;;8.80;;
18360;SDS011;9308;48.550;9.108;2022-12-05T10:22:22;8.80;;;8.00;;
18360;SDS011;9308;48.550;9.108;2022-12-05T10:24:51;8.67;;;7.87;;
18360;SDS011;9308;48.550;9.108;2022-12-05T10:27:41;8.87;;;8.17;;
18360;SDS011;9308;48.550;9.108;2022-12-05T10:30:18;8.93;;;8.03;;
18360;SDS011;9308;48.550;9.108;2022-12-05T10:35:24;9.27;;;8.37;;
18360;SDS011;9308;48.550;9.108;2022-12-05T10:38:11;7.93;;;7.07;;
18360;SDS011;9308;48.550;9.108;2022-12-05T10:40:43;7.60;;;6.90;;
18360;SDS011;9308;48.550;9.108;2022-12-05T10:43:15;7.70;;;6.90;;
18360;SDS011;9308;48.550;9.108;2022-12-05T10:45:43;7.63;;;6.83;;
18360;SDS011;9308;48.550;9.108;2022-12-05T10:48:12;7.97;;;7.17;;
18360;SDS011;9308;48.550;9.108;2022-12-05T10:50:40;7.97;;;7.27;;
18360;SDS011;9308;48.550;9.108;2022-12-05T10:53:07;7.87;;;7.17;;
18360;SDS011;9308;48.550;9.108;2022-12-05T10:55:40;9.10;;;8.30;;
18360;SDS011;9308;48.550;9.108;2022-12-05T10:58:18;9.80;;;8.90;;
18360;SDS011;9308;48.550;9.108;2022-12-05T11:00:55;10.03;;;9.10;;
18360;SDS011;9308;48.550;9.108;2022-12-05T11:03:35;8.17;;;7.37;;
18360;SDS011;9308;48.550;9.108;2022-12-05T11:06:16;8.57;;;7.77;;
18360;SDS011;9308;48.550;9.108;2022-12-05T11:08:51;9.73;;;7.40;;
18360;SDS011;9308;48.550;9.108;2022-12-05T11:11:25;7.83;;;7.03;;
18360;SDS011;9308;48.550;9.108;2022-12-05T11:14:30;8.47;;;7.00;;
18360;SDS011;9308;48.550;9.108;2022-12-05T11:16:51;8.27;;;7.43;;
18360;SDS011;9308;48.550;9.108;2022-12-05T11:21:47;8.67;;;7.70;;
18360;SDS011;9308;48.550;9.108;2022-12-05T11:26:58;7.80;;;7.10;;
18360;SDS011;9308;48.550;9.108;2022-12-05T11:29:55;7.77;;;6.97;;
18360;SDS011;9308;48.550;9.108;2022-12-05T11:32:22;8.70;;;7.80;;
18360;SDS011;9308;48.550;9.108;2022-12-05T11:35:02;8.63;;;7.87;;
18360;SDS011;9308;48.550;9.108;2022-12-05T11:37:34;8.40;;;7.60;;
18360;SDS011;9308;48.550;9.108;2022-12-05T11:40:15;8.40;;;7.70;;
18360;SDS011;9308;48.550;9.108;2022-12-05T11:43:00;7.70;;;7.00;;
18360;SDS011;9308;48.550;9.108;2022-12-05T11:48:41;8.73;;;7.83;;
18360;SDS011;9308;48.550;9.108;2022-12-05T11:54:08;7.90;;;7.20;;
18360;SDS011;9308;48.550;9.108;2022-12-05T11:56:52;9.00;;;8.10;;
18360;SDS011;9308;48.550;9.108;2022-12-05T12:10:36;8.20;;;7.07;;
18360;SDS011;9308;48.550;9.108;2022-12-05T12:13:29;6.67;;;6.17;;
18360;SDS011;9308;48.550;9.108;2022-12-05T12:16:14;7.10;;;6.40;;
18360;SDS011;9308;48.550;9.108;2022-12-05T12:24:38;6.93;;;6.30;;
18360;SDS011;9308;48.550;9.108;2022-12-05T12:30:35;7.53;;;6.70;;
18360;SDS011;9308;48.550;9.108;2022-12-05T12:33:26;7.90;;;7.20;;
18360;SDS011;9308;48.550;9.108;2022-12-05T12:44:37;7.63;;;6.93;;
18360;SDS011;9308;48.550;9.108;2022-12-05T13:04:06;5.80;;;5.30;;
18360;SDS011;9308;48.550;9.108;2022-12-05T13:06:43;5.80;;;5.30;;
18360;SDS011;9308;48.550;9.108;2022-12-05T13:11:53;5.70;;;5.20;;
18360;SDS011;9308;48.550;9.108;2022-12-05T13:14:23;5.33;;;4.90;;
18360;SDS011;9308;48.550;9.108;2022-12-05T13:16:52;5.70;;;5.20;;
18360;SDS011;9308;48.550;9.108;2022-12-05T13:21:54;5.77;;;5.17;;
18360;SDS011;9308;48.550;9.108;2022-12-05T13:24:22;6.13;;;5.20;;
18360;SDS011;9308;48.550;9.108;2022-12-05T13:26:51;5.50;;;5.00;;
18360;SDS011;9308;48.550;9.108;2022-12-05T13:29:19;6.53;;;5.83;;
18360;SDS011;9308;48.550;9.108;2022-12-05T13:31:49;7.20;;;5.17;;
18360;SDS011;9308;48.550;9.108;2022-12-05T13:36:56;6.00;;;5.40;;
18360;SDS011;9308;48.550;9.108;2022-12-05T13:39:41;5.37;;;4.87;;
18360;SDS011;9308;48.550;9.108;2022-12-05T13:42:34;4.90;;;4.33;;
18360;SDS011;9308;48.550;9.108;2022-12-05T13:47:34;5.00;;;4.60;;
18360;SDS011;9308;48.550;9.108;2022-12-05T13:50:38;5.10;;;4.60;;
18360;SDS011;9308;48.550;9.108;2022-12-05T13:58:53;6.07;;;5.57;;
18360;SDS011;9308;48.550;9.108;2022-12-05T14:04:00;7.17;;;5.53;;
18360;SDS011;9308;48.550;9.108;2022-12-05T14:08:59;6.00;;;5.40;;
18360;SDS011;9308;48.550;9.108;2022-12-05T14:11:25;5.80;;;5.30;;
18360;SDS011;9308;48.550;9.108;2022-12-05T14:13:51;4.53;;;4.00;;
18360;SDS011;9308;48.550;9.108;2022-12-05T14:19:01;3.77;;;3.47;;
18360;SDS011;9308;48.550;9.108;2022-12-05T14:24:45;3.03;;;2.83;;
18360;SDS011;9308;48.550;9.108;2022-12-05T14:28:08;2.70;;;2.60;;
18360;SDS011;9308;48.550;9.108;2022-12-05T14:30:32;2.80;;;2.60;;
18360;SDS011;9308;48.550;9.108;2022-12-05T14:33:16;3.27;;;3.00;;
18360;SDS011;9308;48.550;9.108;2022-12-05T14:35:46;2.47;;;2.37;;
18360;SDS011;9308;48.550;9.108;2022-12-05T14:38:22;3.30;;;3.10;;
18360;SDS011;9308;48.550;9.108;2022-12-05T14:40:52;3.20;;;3.00;;
18360;SDS011;9308;48.550;9.108;2022-12-05T14:43:20;2.70;;;2.50;;
18360;SDS011;9308;48.550;9.108;2022-12-05T14:50:43;2.90;;;2.70;;
18360;SDS011;9308;48.550;9.108;2022-12-05T15:03:41;3.67;;;3.37;;
18360;SDS011;9308;48.550;9.108;2022-12-05T15:06:23;3.70;;;3.40;;
18360;SDS011;9308;48.550;9.108;2022-12-05T15:08:50;3.80;;;3.50;;
18360;SDS011;9308;48.550;9.108;2022-12-05T15:11:20;3.60;;;3.30;;
18360;SDS011;9308;48.550;9.108;2022-12-05T15:14:38;3.30;;;3.10;;
18360;SDS011;9308;48.550;9.108;2022-12-05T15:16:45;3.40;;;3.10;;
18360;SDS011;9308;48.550;9.108;2022-12-05T15:19:17;3.40;;;3.10;;
18360;SDS011;9308;48.550;9.108;2022-12-05T15:21:51;3.37;;;3.17;;
18360;SDS011;9308;48.550;9.108;2022-12-05T15:24:21;3.53;;;3.23;;
18360;SDS011;9308;48.550;9.108;2022-12-05T15:26:50;3.37;;;3.17;;
18360;SDS011;9308;48.550;9.108;2022-12-05T15:31:53;3.27;;;3.07;;
18360;SDS011;9308;48.550;9.108;2022-12-05T15:36:59;3.77;;;3.47;;
18360;SDS011;9308;48.550;9.108;2022-12-05T15:39:28;4.23;;;3.63;;
18360;SDS011;9308;48.550;9.108;2022-12-05T15:42:13;3.73;;;3.43;;
18360;SDS011;9308;48.550;9.108;2022-12-05T15:44:40;3.87;;;3.57;;
18360;SDS011;9308;48.550;9.108;2022-12-05T15:47:14;4.30;;;4.00;;
18360;SDS011;9308;48.550;9.108;2022-12-05T15:49:48;8.63;;;7.73;;
18360;SDS011;9308;48.550;9.108;2022-12-05T15:52:35;10.23;;;9.13;;
18360;SDS011;9308;48.550;9.108;2022-12-05T15:55:11;5.00;;;4.60;;
18360;SDS011;9308;48.550;9.108;2022-12-05T15:57:41;6.10;;;5.53;;
18360;SDS011;9308;48.550;9.108;2022-12-05T16:00:13;4.10;;;3.80;;
18360;SDS011;9308;48.550;9.108;2022-12-05T16:02:44;8.20;;;3.60;;
18360;SDS011;9308;48.550;9.108;2022-12-05T16:05:18;4.90;;;4.40;;
18360;SDS011;9308;48.550;9.108;2022-12-05T16:07:49;5.10;;;4.70;;
18360;SDS011;9308;48.550;9.108;2022-12-05T16:10:15;4.67;;;4.27;;
18360;SDS011;9308;48.550;9.108;2022-12-05T16:12:45;4.17;;;3.87;;
18360;SDS011;9308;48.550;9.108;2022-12-05T16:17:53;5.20;;;4.80;;
18360;SDS011;9308;48.550;9.108;2022-12-05T16:22:51;6.93;;;6.10;;
18360;SDS011;9308;48.550;9.108;2022-12-05T16:25:23;6.53;;;5.97;;
18360;SDS011;9308;48.550;9.108;2022-12-05T16:30:27;7.67;;;6.97;;
18360;SDS011;9308;48.550;9.108;2022-12-05T16:33:04;8.13;;;7.43;;
18360;SDS011;9308;48.550;9.108;2022-12-05T16:38:01;6.80;;;6.30;;
18360;SDS011;9308;48.550;9.108;2022-12-05T16:40:40;8.27;;;6.87;;
18360;SDS011;9308;48.550;9.108;2022-12-05T16:45:47;5.03;;;4.60;;
18360;SDS011;9308;48.550;9.108;2022-12-05T16:48:15;8.60;;;7.80;;
18360;SDS011;9308;48.550;9.108;2022-12-05T16:50:43;7.13;;;6.53;;
18360;SDS011;9308;48.550;9.108;2022-12-05T16:55:35;6.00;;;5.37;;
18360;SDS011;9308;48.550;9.108;2022-12-05T16:58:04;4.97;;;4.57;;
18360;SDS011;9308;48.550;9.108;2022-12-05T17:00:35;4.23;;;4.00;;
18360;SDS011;9308;48.550;9.108;2022-12-05T17:03:01;6.77;;;6.17;;
18360;SDS011;9308;48.550;9.108;2022-12-05T17:05:26;12.77;;;11.67;;
18360;SDS011;9308;48.550;9.108;2022-12-05T17:07:52;9.17;;;8.47;;
18360;SDS011;9308;48.550;9.108;2022-12-05T17:10:17;9.10;;;8.40;;
18360;SDS011;9308;48.550;9.108;2022-12-05T17:12:43;9.93;;;9.03;;
18360;SDS011;9308;48.550;9.108;2022-12-05T17:15:13;9.10;;;8.40;;
18360;SDS011;9308;48.550;9.108;2022-12-05T17:17:42;9.27;;;8.57;;
18360;SDS011;9308;48.550;9.108;2022-12-05T17:20:08;12.93;;;11.43;;
18360;SDS011;9308;48.550;9.108;2022-12-05T17:22:33;22.47;;;18.43;;
18360;SDS011;9308;48.550;9.108;2022-12-05T17:24:59;19.00;;;16.03;;
18360;SDS011;9308;48.550;9.108;2022-12-05T17:27:25;16.90;;;14.40;;
18360;SDS011;9308;48.550;9.108;2022-12-05T17:29:53;17.47;;;14.30;;
18360;SDS011;9308;48.550;9.108;2022-12-05T17:32:18;15.20;;;13.60;;
18360;SDS011;9308;48.550;9.108;2022-12-05T17:34:44;13.70;;;12.40;;
18360;SDS011;9308;48.550;9.108;2022-12-05T17:37:09;15.10;;;13.67;;
18360;SDS011;9308;48.550;9.108;2022-12-05T17:39:35;13.93;;;12.70;;
18360;SDS011;9308;48.550;9.108;2022-12-05T17:42:00;9.30;;;8.47;;